sensor_id;sensor_type;location;lat;lon;timestamp;pressure;altitude;pressure_sealevel;temperature;humidity
45991;BME280;31721;41.740;-88.000;2022-08-02T00:00:08;98529.37;;;28.26;37.54
45991;BME280;31721;41.740;-88.000;2022-08-02T00:02:37;98533.34;;;28.54;37.47
45991;BME280;31721;41.740;-88.000;2022-08-02T00:05:05;98531.63;;;28.53;37.72
45991;BME280;31721;41.740;-88.000;2022-08-02T00:07:34;98535.41;;;28.48;37.70
45991;BME280;31721;41.740;-88.000;2022-08-02T00:10:03;98537.58;;;28.39;37.65
45991;BME280;31721;41.740;-88.000;2022-08-02T00:12:35;98541.15;;;28.45;37.77
45991;BME280;31721;41.740;-88.000;2022-08-02T00:15:04;98539.00;;;28.43;37.63
45991;BME280;31721;41.740;-88.000;2022-08-02T00:17:32;98539.68;;;28.39;37.71
45991;BME280;31721;41.740;-88.000;2022-08-02T00:19:59;98541.86;;;28.22;37.83
45991;BME280;31721;41.740;-88.000;2022-08-02T00:22:27;98541.16;;;28.40;38.02
45991;BME280;31721;41.740;-88.000;2022-08-02T00:24:55;98532.83;;;28.16;37.89
45991;BME280;31721;41.740;-88.000;2022-08-02T00:27:22;98536.44;;;28.32;37.75
45991;BME280;31721;41.740;-88.000;2022-08-02T00:29:50;98537.77;;;27.97;37.90
45991;BME280;31721;41.740;-88.000;2022-08-02T00:32:17;98540.22;;;28.10;38.01
45991;BME280;31721;41.740;-88.000;2022-08-02T00:34:45;98543.79;;;28.10;38.03
45991;BME280;31721;41.740;-88.000;2022-08-02T00:37:14;98544.43;;;28.04;38.11
45991;BME280;31721;41.740;-88.000;2022-08-02T00:39:41;98543.85;;;28.14;38.47
45991;BME280;31721;41.740;-88.000;2022-08-02T00:42:09;98543.12;;;28.03;38.26
45991;BME280;31721;41.740;-88.000;2022-08-02T00:44:37;98539.68;;;27.87;38.33
45991;BME280;31721;41.740;-88.000;2022-08-02T00:47:05;98538.91;;;27.87;38.42
45991;BME280;31721;41.740;-88.000;2022-08-02T00:49:32;98537.36;;;27.85;38.51
45991;BME280;31721;41.740;-88.000;2022-08-02T00:52:00;98537.06;;;27.82;38.45
45991;BME280;31721;41.740;-88.000;2022-08-02T00:54:28;98541.97;;;27.65;38.55
45991;BME280;31721;41.740;-88.000;2022-08-02T00:56:56;98542.96;;;27.80;38.75
45991;BME280;31721;41.740;-88.000;2022-08-02T00:59:23;98540.84;;;27.64;38.95
45991;BME280;31721;41.740;-88.000;2022-08-02T01:01:51;98549.90;;;27.67;38.98
45991;BME280;31721;41.740;-88.000;2022-08-02T01:04:19;98553.07;;;27.57;38.99
45991;BME280;31721;41.740;-88.000;2022-08-02T01:06:46;98558.47;;;27.66;38.99
45991;BME280;31721;41.740;-88.000;2022-08-02T01:09:13;98562.24;;;27.40;39.12
45991;BME280;31721;41.740;-88.000;2022-08-02T01:11:41;98561.41;;;27.44;39.07
45991;BME280;31721;41.740;-88.000;2022-08-02T01:14:11;98562.22;;;27.57;38.97
45991;BME280;31721;41.740;-88.000;2022-08-02T01:16:49;98561.70;;;27.39;38.83
45991;BME280;31721;41.740;-88.000;2022-08-02T01:19:36;98561.79;;;27.46;38.75
45991;BME280;31721;41.740;-88.000;2022-08-02T01:22:19;98561.29;;;27.36;38.64
45991;BME280;31721;41.740;-88.000;2022-08-02T01:25:05;98559.59;;;27.31;38.74
45991;BME280;31721;41.740;-88.000;2022-08-02T01:28:14;98562.47;;;27.29;38.93
45991;BME280;31721;41.740;-88.000;2022-08-02T01:30:54;98568.02;;;27.12;39.03
45991;BME280;31721;41.740;-88.000;2022-08-02T01:33:27;98575.24;;;26.90;39.37
45991;BME280;31721;41.740;-88.000;2022-08-02T01:35:58;98583.33;;;26.87;39.15
45991;BME280;31721;41.740;-88.000;2022-08-02T01:38:30;98585.35;;;26.97;39.19
45991;BME280;31721;41.740;-88.000;2022-08-02T01:41:01;98581.44;;;26.87;39.31
45991;BME280;31721;41.740;-88.000;2022-08-02T01:43:32;98584.87;;;26.86;39.39
45991;BME280;31721;41.740;-88.000;2022-08-02T01:46:02;98588.07;;;26.91;39.37
45991;BME280;31721;41.740;-88.000;2022-08-02T01:48:31;98593.14;;;26.86;39.57
45991;BME280;31721;41.740;-88.000;2022-08-02T01:51:02;98601.49;;;26.83;39.71
45991;BME280;31721;41.740;-88.000;2022-08-02T01:53:31;98606.03;;;26.82;39.65
45991;BME280;31721;41.740;-88.000;2022-08-02T01:55:59;98606.96;;;26.72;39.70
45991;BME280;31721;41.740;-88.000;2022-08-02T01:58:30;98609.51;;;26.64;39.85
45991;BME280;31721;41.740;-88.000;2022-08-02T02:01:01;98615.32;;;26.52;39.94
45991;BME280;31721;41.740;-88.000;2022-08-02T02:03:31;98617.64;;;26.42;40.20
45991;BME280;31721;41.740;-88.000;2022-08-02T02:06:01;98617.35;;;26.26;40.18
45991;BME280;31721;41.740;-88.000;2022-08-02T02:08:33;98620.61;;;26.04;40.36
45991;BME280;31721;41.740;-88.000;2022-08-02T02:11:03;98622.26;;;26.03;40.61
45991;BME280;31721;41.740;-88.000;2022-08-02T02:13:32;98628.45;;;25.95;40.91
45991;BME280;31721;41.740;-88.000;2022-08-02T02:16:02;98636.56;;;25.95;41.05
45991;BME280;31721;41.740;-88.000;2022-08-02T02:18:36;98644.32;;;25.96;40.94
45991;BME280;31721;41.740;-88.000;2022-08-02T02:21:05;98645.87;;;26.16;41.17
45991;BME280;31721;41.740;-88.000;2022-08-02T02:23:32;98648.03;;;26.17;41.09
45991;BME280;31721;41.740;-88.000;2022-08-02T02:26:03;98654.23;;;25.91;41.07
45991;BME280;31721;41.740;-88.000;2022-08-02T02:28:34;98659.52;;;25.93;41.20
45991;BME280;31721;41.740;-88.000;2022-08-02T02:31:06;98663.35;;;25.91;41.54
45991;BME280;31721;41.740;-88.000;2022-08-02T02:33:39;98666.74;;;25.81;41.62
45991;BME280;31721;41.740;-88.000;2022-08-02T02:36:08;98670.35;;;25.84;41.87
45991;BME280;31721;41.740;-88.000;2022-08-02T02:38:37;98668.79;;;25.76;41.97
45991;BME280;31721;41.740;-88.000;2022-08-02T02:41:06;98668.14;;;25.66;42.09
45991;BME280;31721;41.740;-88.000;2022-08-02T02:43:34;98666.45;;;25.55;42.13
45991;BME280;31721;41.740;-88.000;2022-08-02T02:46:06;98672.85;;;25.25;42.46
45991;BME280;31721;41.740;-88.000;2022-08-02T02:48:35;98673.27;;;25.18;42.73
45991;BME280;31721;41.740;-88.000;2022-08-02T02:51:04;98671.86;;;25.04;42.77
45991;BME280;31721;41.740;-88.000;2022-08-02T02:53:34;98674.77;;;25.13;42.89
45991;BME280;31721;41.740;-88.000;2022-08-02T02:56:03;98679.62;;;25.11;43.59
45991;BME280;31721;41.740;-88.000;2022-08-02T02:58:31;98682.74;;;25.19;43.33
45991;BME280;31721;41.740;-88.000;2022-08-02T03:00:59;98683.10;;;25.14;43.38
45991;BME280;31721;41.740;-88.000;2022-08-02T03:03:28;98684.30;;;25.09;43.50
45991;BME280;31721;41.740;-88.000;2022-08-02T03:05:56;98681.59;;;25.03;43.72
45991;BME280;31721;41.740;-88.000;2022-08-02T03:08:23;98682.28;;;25.02;43.83
45991;BME280;31721;41.740;-88.000;2022-08-02T03:10:51;98685.42;;;25.05;44.13
45991;BME280;31721;41.740;-88.000;2022-08-02T03:13:20;98691.81;;;25.24;43.92
45991;BME280;31721;41.740;-88.000;2022-08-02T03:15:48;98695.04;;;25.21;43.92
45991;BME280;31721;41.740;-88.000;2022-08-02T03:18:35;98689.82;;;25.14;44.20
45991;BME280;31721;41.740;-88.000;2022-08-02T03:21:05;98688.43;;;24.88;44.31
45991;BME280;31721;41.740;-88.000;2022-08-02T03:23:33;98692.04;;;24.75;44.72
45991;BME280;31721;41.740;-88.000;2022-08-02T03:26:02;98695.98;;;24.75;44.85
45991;BME280;31721;41.740;-88.000;2022-08-02T03:28:31;98695.70;;;24.55;44.99
45991;BME280;31721;41.740;-88.000;2022-08-02T03:30:59;98699.21;;;24.42;44.91
45991;BME280;31721;41.740;-88.000;2022-08-02T03:33:28;98694.84;;;24.28;44.84
45991;BME280;31721;41.740;-88.000;2022-08-02T03:36:00;98689.75;;;24.25;44.93
45991;BME280;31721;41.740;-88.000;2022-08-02T03:38:30;98692.80;;;24.35;45.29
45991;BME280;31721;41.740;-88.000;2022-08-02T03:40:59;98692.69;;;24.32;45.56
45991;BME280;31721;41.740;-88.000;2022-08-02T03:43:28;98694.03;;;24.19;45.62
45991;BME280;31721;41.740;-88.000;2022-08-02T03:45:57;98693.32;;;24.17;45.66
45991;BME280;31721;41.740;-88.000;2022-08-02T03:48:26;98693.70;;;24.23;45.70
45991;BME280;31721;41.740;-88.000;2022-08-02T03:50:55;98695.30;;;24.11;45.66
45991;BME280;31721;41.740;-88.000;2022-08-02T03:53:29;98694.55;;;24.17;45.88
45991;BME280;31721;41.740;-88.000;2022-08-02T03:55:57;98701.30;;;24.16;46.03
45991;BME280;31721;41.740;-88.000;2022-08-02T03:58:25;98700.99;;;24.14;46.14
45991;BME280;31721;41.740;-88.000;2022-08-02T04:00:55;98696.25;;;24.08;46.26
45991;BME280;31721;41.740;-88.000;2022-08-02T04:03:24;98691.26;;;23.92;46.17
45991;BME280;31721;41.740;-88.000;2022-08-02T04:05:52;98690.12;;;23.81;46.22
45991;BME280;31721;41.740;-88.000;2022-08-02T04:08:20;98690.59;;;23.77;46.82
45991;BME280;31721;41.740;-88.000;2022-08-02T04:10:47;98692.68;;;23.74;46.86
45991;BME280;31721;41.740;-88.000;2022-08-02T04:13:15;98691.16;;;23.65;46.88
45991;BME280;31721;41.740;-88.000;2022-08-02T04:15:43;98694.33;;;23.63;47.01
45991;BME280;31721;41.740;-88.000;2022-08-02T04:18:11;98699.05;;;23.64;47.17
45991;BME280;31721;41.740;-88.000;2022-08-02T04:20:41;98703.38;;;23.72;47.32
45991;BME280;31721;41.740;-88.000;2022-08-02T04:23:11;98706.36;;;23.87;47.22
45991;BME280;31721;41.740;-88.000;2022-08-02T04:25:40;98707.69;;;23.74;47.06
45991;BME280;31721;41.740;-88.000;2022-08-02T04:28:09;98704.11;;;23.60;47.13
45991;BME280;31721;41.740;-88.000;2022-08-02T04:30:38;98702.67;;;23.69;47.34
45991;BME280;31721;41.740;-88.000;2022-08-02T04:33:06;98703.41;;;23.50;47.35
45991;BME280;31721;41.740;-88.000;2022-08-02T04:35:34;98707.60;;;23.60;47.66
45991;BME280;31721;41.740;-88.000;2022-08-02T04:38:02;98709.57;;;23.49;47.71
45991;BME280;31721;41.740;-88.000;2022-08-02T04:40:30;98705.51;;;23.31;47.63
45991;BME280;31721;41.740;-88.000;2022-08-02T04:42:58;98699.48;;;23.23;47.99
45991;BME280;31721;41.740;-88.000;2022-08-02T04:45:30;98700.82;;;23.26;48.32
45991;BME280;31721;41.740;-88.000;2022-08-02T04:47:58;98703.97;;;23.18;48.34
45991;BME280;31721;41.740;-88.000;2022-08-02T04:50:26;98704.92;;;23.27;48.52
45991;BME280;31721;41.740;-88.000;2022-08-02T04:52:53;98707.72;;;23.19;48.49
45991;BME280;31721;41.740;-88.000;2022-08-02T04:55:21;98712.33;;;23.16;48.53
45991;BME280;31721;41.740;-88.000;2022-08-02T04:57:49;98709.12;;;23.13;48.70
45991;BME280;31721;41.740;-88.000;2022-08-02T05:00:16;98710.50;;;22.99;48.47
45991;BME280;31721;41.740;-88.000;2022-08-02T05:02:44;98706.61;;;23.02;48.96
45991;BME280;31721;41.740;-88.000;2022-08-02T05:05:12;98703.66;;;23.20;49.15
45991;BME280;31721;41.740;-88.000;2022-08-02T05:07:39;98705.57;;;23.26;49.21
45991;BME280;31721;41.740;-88.000;2022-08-02T05:10:08;98707.76;;;23.23;49.18
45991;BME280;31721;41.740;-88.000;2022-08-02T05:12:36;98710.69;;;23.16;49.35
45991;BME280;31721;41.740;-88.000;2022-08-02T05:15:04;98713.95;;;23.08;49.47
45991;BME280;31721;41.740;-88.000;2022-08-02T05:17:32;98719.33;;;23.10;49.73
45991;BME280;31721;41.740;-88.000;2022-08-02T05:20:00;98724.55;;;22.98;49.61
45991;BME280;31721;41.740;-88.000;2022-08-02T05:22:28;98730.43;;;22.94;49.88
45991;BME280;31721;41.740;-88.000;2022-08-02T05:24:55;98729.09;;;22.82;49.97
45991;BME280;31721;41.740;-88.000;2022-08-02T05:27:23;98723.57;;;22.70;49.72
45991;BME280;31721;41.740;-88.000;2022-08-02T05:29:51;98719.76;;;22.59;50.08
45991;BME280;31721;41.740;-88.000;2022-08-02T05:32:19;98723.27;;;22.66;50.30
45991;BME280;31721;41.740;-88.000;2022-08-02T05:34:46;98726.73;;;22.72;50.42
45991;BME280;31721;41.740;-88.000;2022-08-02T05:37:14;98724.34;;;22.68;50.50
45991;BME280;31721;41.740;-88.000;2022-08-02T05:39:42;98725.15;;;22.67;50.67
45991;BME280;31721;41.740;-88.000;2022-08-02T05:42:10;98727.51;;;22.65;50.75
45991;BME280;31721;41.740;-88.000;2022-08-02T05:44:37;98729.38;;;22.68;50.89
45991;BME280;31721;41.740;-88.000;2022-08-02T05:47:05;98735.69;;;22.54;51.08
45991;BME280;31721;41.740;-88.000;2022-08-02T05:49:32;98732.54;;;22.75;51.12
45991;BME280;31721;41.740;-88.000;2022-08-02T05:52:06;98731.94;;;22.67;51.19
45991;BME280;31721;41.740;-88.000;2022-08-02T05:54:39;98732.02;;;22.65;51.15
45991;BME280;31721;41.740;-88.000;2022-08-02T05:57:19;98733.51;;;22.59;51.22
45991;BME280;31721;41.740;-88.000;2022-08-02T06:00:03;98733.29;;;22.58;51.37
45991;BME280;31721;41.740;-88.000;2022-08-02T06:02:41;98738.56;;;22.61;51.39
45991;BME280;31721;41.740;-88.000;2022-08-02T06:05:11;98738.81;;;22.65;51.53
45991;BME280;31721;41.740;-88.000;2022-08-02T06:07:42;98740.23;;;22.55;51.40
45991;BME280;31721;41.740;-88.000;2022-08-02T06:10:12;98735.28;;;22.52;51.64
45991;BME280;31721;41.740;-88.000;2022-08-02T06:12:45;98732.95;;;22.41;51.68
45991;BME280;31721;41.740;-88.000;2022-08-02T06:15:16;98734.20;;;22.44;51.70
45991;BME280;31721;41.740;-88.000;2022-08-02T06:17:46;98736.51;;;22.48;51.84
45991;BME280;31721;41.740;-88.000;2022-08-02T06:20:14;98739.18;;;22.32;51.94
45991;BME280;31721;41.740;-88.000;2022-08-02T06:22:43;98739.14;;;22.44;52.03
45991;BME280;31721;41.740;-88.000;2022-08-02T06:25:14;98739.18;;;22.36;52.12
45991;BME280;31721;41.740;-88.000;2022-08-02T06:27:41;98741.20;;;22.46;52.16
45991;BME280;31721;41.740;-88.000;2022-08-02T06:30:10;98738.91;;;22.49;52.09
45991;BME280;31721;41.740;-88.000;2022-08-02T06:32:37;98736.88;;;22.39;51.98
45991;BME280;31721;41.740;-88.000;2022-08-02T06:35:05;98738.98;;;22.26;52.28
45991;BME280;31721;41.740;-88.000;2022-08-02T06:37:37;98735.90;;;22.28;52.43
45991;BME280;31721;41.740;-88.000;2022-08-02T06:40:12;98736.53;;;22.24;52.54
45991;BME280;31721;41.740;-88.000;2022-08-02T06:42:46;98746.38;;;22.21;52.64
45991;BME280;31721;41.740;-88.000;2022-08-02T06:45:14;98751.11;;;22.17;52.74
45991;BME280;31721;41.740;-88.000;2022-08-02T06:47:42;98754.27;;;22.13;52.83
45991;BME280;31721;41.740;-88.000;2022-08-02T06:50:10;98751.80;;;22.11;52.85
45991;BME280;31721;41.740;-88.000;2022-08-02T06:52:38;98747.95;;;22.06;52.96
45991;BME280;31721;41.740;-88.000;2022-08-02T06:55:07;98743.44;;;21.99;52.91
45991;BME280;31721;41.740;-88.000;2022-08-02T06:57:35;98741.89;;;21.89;53.18
45991;BME280;31721;41.740;-88.000;2022-08-02T07:00:05;98743.11;;;21.79;53.01
45991;BME280;31721;41.740;-88.000;2022-08-02T07:02:34;98744.22;;;21.73;53.56
45991;BME280;31721;41.740;-88.000;2022-08-02T07:05:02;98745.67;;;21.72;53.73
45991;BME280;31721;41.740;-88.000;2022-08-02T07:07:30;98747.51;;;21.72;53.83
45991;BME280;31721;41.740;-88.000;2022-08-02T07:09:59;98745.84;;;21.78;53.82
45991;BME280;31721;41.740;-88.000;2022-08-02T07:12:26;98746.10;;;21.72;53.90
45991;BME280;31721;41.740;-88.000;2022-08-02T07:14:54;98748.95;;;21.74;53.93
45991;BME280;31721;41.740;-88.000;2022-08-02T07:17:22;98752.71;;;21.77;53.91
45991;BME280;31721;41.740;-88.000;2022-08-02T07:19:50;98753.17;;;21.89;53.78
45991;BME280;31721;41.740;-88.000;2022-08-02T07:22:17;98750.69;;;21.83;53.52
45991;BME280;31721;41.740;-88.000;2022-08-02T07:24:45;98746.72;;;21.76;53.68
45991;BME280;31721;41.740;-88.000;2022-08-02T07:27:12;98748.76;;;21.63;53.90
45991;BME280;31721;41.740;-88.000;2022-08-02T07:29:41;98750.92;;;21.54;54.05
45991;BME280;31721;41.740;-88.000;2022-08-02T07:32:08;98757.23;;;21.39;54.26
45991;BME280;31721;41.740;-88.000;2022-08-02T07:34:36;98764.49;;;21.36;54.52
45991;BME280;31721;41.740;-88.000;2022-08-02T07:37:03;98770.10;;;21.42;54.69
45991;BME280;31721;41.740;-88.000;2022-08-02T07:39:31;98776.50;;;21.35;54.84
45991;BME280;31721;41.740;-88.000;2022-08-02T07:41:58;98777.57;;;21.39;54.70
45991;BME280;31721;41.740;-88.000;2022-08-02T07:44:26;98773.38;;;21.37;54.80
45991;BME280;31721;41.740;-88.000;2022-08-02T07:46:54;98771.95;;;21.29;54.98
45991;BME280;31721;41.740;-88.000;2022-08-02T07:49:22;98773.31;;;21.34;54.93
45991;BME280;31721;41.740;-88.000;2022-08-02T07:51:50;98778.27;;;21.26;55.07
45991;BME280;31721;41.740;-88.000;2022-08-02T07:54:17;98786.09;;;21.27;55.04
45991;BME280;31721;41.740;-88.000;2022-08-02T07:56:45;98789.06;;;21.38;55.05
45991;BME280;31721;41.740;-88.000;2022-08-02T07:59:13;98787.19;;;21.37;54.97
45991;BME280;31721;41.740;-88.000;2022-08-02T08:01:40;98786.98;;;21.36;55.02
45991;BME280;31721;41.740;-88.000;2022-08-02T08:04:08;98789.46;;;21.28;55.10
45991;BME280;31721;41.740;-88.000;2022-08-02T08:06:36;98790.78;;;21.32;55.04
45991;BME280;31721;41.740;-88.000;2022-08-02T08:09:04;98787.89;;;21.32;55.14
45991;BME280;31721;41.740;-88.000;2022-08-02T08:11:31;98785.59;;;21.24;55.24
45991;BME280;31721;41.740;-88.000;2022-08-02T08:13:59;98785.17;;;21.32;55.33
45991;BME280;31721;41.740;-88.000;2022-08-02T08:16:27;98789.58;;;21.47;55.33
45991;BME280;31721;41.740;-88.000;2022-08-02T08:18:55;98792.23;;;21.41;55.14
45991;BME280;31721;41.740;-88.000;2022-08-02T08:21:22;98791.99;;;21.48;55.07
45991;BME280;31721;41.740;-88.000;2022-08-02T08:23:50;98793.30;;;21.41;55.02
45991;BME280;31721;41.740;-88.000;2022-08-02T08:26:23;98792.21;;;21.38;55.24
45991;BME280;31721;41.740;-88.000;2022-08-02T08:28:51;98790.58;;;21.33;55.32
45991;BME280;31721;41.740;-88.000;2022-08-02T08:31:19;98794.68;;;21.16;55.37
45991;BME280;31721;41.740;-88.000;2022-08-02T08:33:46;98790.75;;;20.98;55.40
45991;BME280;31721;41.740;-88.000;2022-08-02T08:36:14;98788.06;;;20.98;55.81
45991;BME280;31721;41.740;-88.000;2022-08-02T08:38:42;98785.13;;;20.90;56.02
45991;BME280;31721;41.740;-88.000;2022-08-02T08:41:10;98786.51;;;20.96;56.39
45991;BME280;31721;41.740;-88.000;2022-08-02T08:43:37;98796.48;;;21.02;56.36
45991;BME280;31721;41.740;-88.000;2022-08-02T08:46:05;98800.47;;;20.95;56.18
45991;BME280;31721;41.740;-88.000;2022-08-02T08:48:39;98799.77;;;20.99;56.26
45991;BME280;31721;41.740;-88.000;2022-08-02T08:51:10;98796.48;;;20.95;56.29
45991;BME280;31721;41.740;-88.000;2022-08-02T08:53:42;98791.78;;;20.78;56.32
45991;BME280;31721;41.740;-88.000;2022-08-02T08:56:11;98785.54;;;20.72;56.48
45991;BME280;31721;41.740;-88.000;2022-08-02T08:58:39;98786.83;;;20.76;56.73
45991;BME280;31721;41.740;-88.000;2022-08-02T09:01:06;98786.32;;;20.73;56.93
45991;BME280;31721;41.740;-88.000;2022-08-02T09:03:34;98785.16;;;20.75;57.00
45991;BME280;31721;41.740;-88.000;2022-08-02T09:06:02;98779.59;;;20.75;57.01
45991;BME280;31721;41.740;-88.000;2022-08-02T09:08:30;98781.23;;;20.76;57.07
45991;BME280;31721;41.740;-88.000;2022-08-02T09:10:57;98785.21;;;20.65;56.92
45991;BME280;31721;41.740;-88.000;2022-08-02T09:13:26;98789.11;;;20.69;56.91
45991;BME280;31721;41.740;-88.000;2022-08-02T09:15:56;98792.08;;;20.76;57.03
45991;BME280;31721;41.740;-88.000;2022-08-02T09:18:29;98792.59;;;20.61;57.17
45991;BME280;31721;41.740;-88.000;2022-08-02T09:20:59;98789.92;;;20.66;57.12
45991;BME280;31721;41.740;-88.000;2022-08-02T09:23:33;98789.00;;;20.65;56.99
45991;BME280;31721;41.740;-88.000;2022-08-02T09:26:03;98794.02;;;20.62;57.09
45991;BME280;31721;41.740;-88.000;2022-08-02T09:28:33;98795.96;;;20.60;57.22
45991;BME280;31721;41.740;-88.000;2022-08-02T09:31:06;98793.35;;;20.52;57.11
45991;BME280;31721;41.740;-88.000;2022-08-02T09:33:36;98795.85;;;20.50;57.27
45991;BME280;31721;41.740;-88.000;2022-08-02T09:36:06;98800.33;;;20.57;57.54
45991;BME280;31721;41.740;-88.000;2022-08-02T09:38:35;98801.27;;;20.54;57.34
45991;BME280;31721;41.740;-88.000;2022-08-02T09:41:03;98801.48;;;20.62;57.30
45991;BME280;31721;41.740;-88.000;2022-08-02T09:43:37;98801.89;;;20.58;57.26
45991;BME280;31721;41.740;-88.000;2022-08-02T09:46:13;98809.31;;;20.48;57.30
45991;BME280;31721;41.740;-88.000;2022-08-02T09:48:50;98814.57;;;20.57;57.18
45991;BME280;31721;41.740;-88.000;2022-08-02T09:51:21;98814.69;;;20.45;57.05
45991;BME280;31721;41.740;-88.000;2022-08-02T09:53:56;98812.15;;;20.51;57.18
45991;BME280;31721;41.740;-88.000;2022-08-02T09:56:26;98820.41;;;20.51;57.06
45991;BME280;31721;41.740;-88.000;2022-08-02T09:58:54;98824.65;;;20.49;57.00
45991;BME280;31721;41.740;-88.000;2022-08-02T10:01:30;98829.04;;;20.42;56.97
45991;BME280;31721;41.740;-88.000;2022-08-02T10:03:59;98830.39;;;20.40;57.07
45991;BME280;31721;41.740;-88.000;2022-08-02T10:06:27;98830.41;;;20.36;57.29
45991;BME280;31721;41.740;-88.000;2022-08-02T10:08:56;98837.11;;;20.36;57.42
45991;BME280;31721;41.740;-88.000;2022-08-02T10:11:26;98840.30;;;20.35;57.63
45991;BME280;31721;41.740;-88.000;2022-08-02T10:13:54;98840.84;;;20.36;57.52
45991;BME280;31721;41.740;-88.000;2022-08-02T10:16:23;98842.26;;;20.41;57.62
45991;BME280;31721;41.740;-88.000;2022-08-02T10:18:52;98845.91;;;20.34;57.75
45991;BME280;31721;41.740;-88.000;2022-08-02T10:21:23;98856.35;;;20.43;57.57
45991;BME280;31721;41.740;-88.000;2022-08-02T10:23:52;98860.96;;;20.25;57.56
45991;BME280;31721;41.740;-88.000;2022-08-02T10:26:21;98864.08;;;20.33;57.56
45991;BME280;31721;41.740;-88.000;2022-08-02T10:28:49;98863.00;;;20.33;57.75
45991;BME280;31721;41.740;-88.000;2022-08-02T10:31:22;98865.10;;;20.21;57.92
45991;BME280;31721;41.740;-88.000;2022-08-02T10:33:51;98868.23;;;20.19;58.03
45991;BME280;31721;41.740;-88.000;2022-08-02T10:36:20;98867.48;;;20.19;57.78
45991;BME280;31721;41.740;-88.000;2022-08-02T10:38:48;98868.94;;;20.18;58.02
45991;BME280;31721;41.740;-88.000;2022-08-02T10:41:40;98867.56;;;20.21;57.97
45991;BME280;31721;41.740;-88.000;2022-08-02T10:44:08;98868.12;;;20.17;58.08
45991;BME280;31721;41.740;-88.000;2022-08-02T10:46:45;98868.30;;;20.07;58.26
45991;BME280;31721;41.740;-88.000;2022-08-02T10:49:15;98867.19;;;20.13;58.22
45991;BME280;31721;41.740;-88.000;2022-08-02T10:52:05;98867.51;;;20.06;58.30
45991;BME280;31721;41.740;-88.000;2022-08-02T10:54:35;98874.78;;;20.08;58.12
45991;BME280;31721;41.740;-88.000;2022-08-02T10:57:14;98876.73;;;20.15;58.09
45991;BME280;31721;41.740;-88.000;2022-08-02T10:59:42;98876.07;;;20.11;58.21
45991;BME280;31721;41.740;-88.000;2022-08-02T11:02:11;98876.22;;;20.06;58.22
45991;BME280;31721;41.740;-88.000;2022-08-02T11:05:13;98869.71;;;20.05;58.54
45991;BME280;31721;41.740;-88.000;2022-08-02T11:07:43;98861.05;;;20.05;58.61
45991;BME280;31721;41.740;-88.000;2022-08-02T11:10:30;98862.54;;;19.96;58.65
45991;BME280;31721;41.740;-88.000;2022-08-02T11:13:01;98865.05;;;20.07;58.50
45991;BME280;31721;41.740;-88.000;2022-08-02T11:15:29;98871.45;;;20.09;58.58
45991;BME280;31721;41.740;-88.000;2022-08-02T11:18:13;98881.96;;;20.13;58.54
45991;BME280;31721;41.740;-88.000;2022-08-02T11:20:41;98883.94;;;20.10;58.50
45991;BME280;31721;41.740;-88.000;2022-08-02T11:23:40;98885.05;;;20.09;58.35
45991;BME280;31721;41.740;-88.000;2022-08-02T11:26:41;98889.71;;;20.05;58.44
45991;BME280;31721;41.740;-88.000;2022-08-02T11:29:10;98897.17;;;20.07;58.78
45991;BME280;31721;41.740;-88.000;2022-08-02T11:31:40;98887.85;;;20.05;58.95
45991;BME280;31721;41.740;-88.000;2022-08-02T11:34:08;98882.99;;;19.96;59.00
45991;BME280;31721;41.740;-88.000;2022-08-02T11:36:52;98888.76;;;20.03;59.05
45991;BME280;31721;41.740;-88.000;2022-08-02T11:39:22;98888.97;;;20.13;58.90
45991;BME280;31721;41.740;-88.000;2022-08-02T11:41:51;98886.42;;;20.13;59.06
45991;BME280;31721;41.740;-88.000;2022-08-02T11:44:19;98888.95;;;20.06;59.12
45991;BME280;31721;41.740;-88.000;2022-08-02T11:46:54;98895.57;;;20.08;59.34
45991;BME280;31721;41.740;-88.000;2022-08-02T11:49:23;98901.70;;;20.28;59.38
45991;BME280;31721;41.740;-88.000;2022-08-02T11:51:53;98902.01;;;20.23;59.39
45991;BME280;31721;41.740;-88.000;2022-08-02T11:54:26;98899.47;;;20.28;59.25
45991;BME280;31721;41.740;-88.000;2022-08-02T11:56:54;98900.85;;;20.28;59.40
45991;BME280;31721;41.740;-88.000;2022-08-02T11:59:22;98901.65;;;20.34;59.48
45991;BME280;31721;41.740;-88.000;2022-08-02T12:01:49;98906.71;;;20.45;59.44
45991;BME280;31721;41.740;-88.000;2022-08-02T12:04:19;98916.31;;;20.59;59.48
45991;BME280;31721;41.740;-88.000;2022-08-02T12:06:56;98913.72;;;20.63;59.49
45991;BME280;31721;41.740;-88.000;2022-08-02T12:09:26;98907.41;;;20.57;59.49
45991;BME280;31721;41.740;-88.000;2022-08-02T12:11:54;98903.46;;;20.66;59.98
45991;BME280;31721;41.740;-88.000;2022-08-02T12:14:22;98899.62;;;20.63;59.72
45991;BME280;31721;41.740;-88.000;2022-08-02T12:16:51;98901.78;;;20.76;59.95
45991;BME280;31721;41.740;-88.000;2022-08-02T12:19:19;98900.87;;;20.81;59.95
45991;BME280;31721;41.740;-88.000;2022-08-02T12:21:46;98896.66;;;20.87;60.17
45991;BME280;31721;41.740;-88.000;2022-08-02T12:24:26;98889.44;;;20.89;60.51
45991;BME280;31721;41.740;-88.000;2022-08-02T12:26:54;98892.23;;;20.78;60.48
45991;BME280;31721;41.740;-88.000;2022-08-02T12:29:29;98892.60;;;21.02;60.48
45991;BME280;31721;41.740;-88.000;2022-08-02T12:31:57;98892.59;;;21.17;60.55
45991;BME280;31721;41.740;-88.000;2022-08-02T12:34:26;98891.74;;;21.32;60.64
45991;BME280;31721;41.740;-88.000;2022-08-02T12:36:59;98892.50;;;21.48;60.31
45991;BME280;31721;41.740;-88.000;2022-08-02T12:39:38;98890.99;;;21.65;60.01
45991;BME280;31721;41.740;-88.000;2022-08-02T12:42:08;98895.42;;;21.74;59.81
45991;BME280;31721;41.740;-88.000;2022-08-02T12:44:37;98892.16;;;21.90;59.48
45991;BME280;31721;41.740;-88.000;2022-08-02T12:47:06;98890.84;;;21.99;58.84
45991;BME280;31721;41.740;-88.000;2022-08-02T12:49:35;98886.49;;;22.18;58.84
45991;BME280;31721;41.740;-88.000;2022-08-02T12:52:17;98866.76;;;22.33;58.21
45991;BME280;31721;41.740;-88.000;2022-08-02T12:54:45;98862.18;;;22.51;57.81